sensor_id;sensor_type;location;lat;lon;timestamp;pressure;altitude;pressure_sealevel;temperature;humidity
46379;BME280;32084;42.254;22.744;2024-02-04T00:01:19;95719.09;;;-0.75;84.68
46379;BME280;32084;42.254;22.744;2024-02-04T00:03:45;95709.59;;;-0.61;85.34
46379;BME280;32084;42.254;22.744;2024-02-04T00:06:11;95713.16;;;-0.79;84.94
46379;BME280;32084;42.254;22.744;2024-02-04T00:08:37;95717.63;;;-0.81;85.36
46379;BME280;32084;42.254;22.744;2024-02-04T00:11:03;95718.41;;;-0.79;84.92
46379;BME280;32084;42.254;22.744;2024-02-04T00:13:30;95720.19;;;-0.80;85.96
46379;BME280;32084;42.254;22.744;2024-02-04T00:15:56;95727.66;;;-0.89;85.04
46379;BME280;32084;42.254;22.744;2024-02-04T00:18:24;95718.72;;;-0.85;85.42
46379;BME280;32084;42.254;22.744;2024-02-04T00:20:50;95716.94;;;-0.85;85.27
46379;BME280;32084;42.254;22.744;2024-02-04T00:23:16;95728.81;;;-0.95;85.99
46379;BME280;32084;42.254;22.744;2024-02-04T00:25:42;95723.22;;;-0.87;86.26
46379;BME280;32084;42.254;22.744;2024-02-04T00:28:08;95718.03;;;-1.06;85.48
46379;BME280;32084;42.254;22.744;2024-02-04T00:30:37;95728.03;;;-0.97;85.90
46379;BME280;32084;42.254;22.744;2024-02-04T00:33:04;95694.31;;;-1.22;86.11
46379;BME280;32084;42.254;22.744;2024-02-04T00:35:30;95727.59;;;-0.88;85.81
46379;BME280;32084;42.254;22.744;2024-02-04T00:37:56;95714.94;;;-0.80;86.16
46379;BME280;32084;42.254;22.744;2024-02-04T00:40:23;95712.09;;;-0.92;86.24
46379;BME280;32084;42.254;22.744;2024-02-04T00:42:48;95707.91;;;-0.96;86.66
46379;BME280;32084;42.254;22.744;2024-02-04T00:45:14;95716.84;;;-1.01;87.21
46379;BME280;32084;42.254;22.744;2024-02-04T00:47:42;95728.53;;;-1.06;88.74
46379;BME280;32084;42.254;22.744;2024-02-04T00:50:08;95713.91;;;-0.77;87.83
46379;BME280;32084;42.254;22.744;2024-02-04T00:52:34;95714.34;;;-0.51;87.01
46379;BME280;32084;42.254;22.744;2024-02-04T00:55:00;95714.13;;;-0.47;86.80
46379;BME280;32084;42.254;22.744;2024-02-04T00:57:26;95715.66;;;-0.43;86.83
46379;BME280;32084;42.254;22.744;2024-02-04T00:59:52;95725.75;;;-0.68;86.26
46379;BME280;32084;42.254;22.744;2024-02-04T01:02:18;95714.38;;;-0.69;87.07
46379;BME280;32084;42.254;22.744;2024-02-04T01:04:44;95720.56;;;-0.70;88.30
46379;BME280;32084;42.254;22.744;2024-02-04T01:07:10;95719.63;;;-0.69;88.84
46379;BME280;32084;42.254;22.744;2024-02-04T01:09:36;95720.28;;;-0.48;88.29
46379;BME280;32084;42.254;22.744;2024-02-04T01:12:03;95716.94;;;-0.34;88.10
46379;BME280;32084;42.254;22.744;2024-02-04T01:14:29;95717.88;;;-0.35;87.41
46379;BME280;32084;42.254;22.744;2024-02-04T01:16:55;95718.59;;;-0.49;87.29
46379;BME280;32084;42.254;22.744;2024-02-04T01:19:21;95714.41;;;-0.35;87.08
46379;BME280;32084;42.254;22.744;2024-02-04T01:21:47;95709.84;;;-0.16;86.75
46379;BME280;32084;42.254;22.744;2024-02-04T01:24:13;95709.28;;;-0.05;87.42
46379;BME280;32084;42.254;22.744;2024-02-04T01:26:38;95709.34;;;-0.23;87.21
46379;BME280;32084;42.254;22.744;2024-02-04T01:29:04;95703.59;;;-0.47;88.31
46379;BME280;32084;42.254;22.744;2024-02-04T01:31:30;95708.94;;;-0.48;90.10
46379;BME280;32084;42.254;22.744;2024-02-04T01:33:56;95690.84;;;-0.21;89.31
46379;BME280;32084;42.254;22.744;2024-02-04T01:36:22;95695.94;;;-0.02;89.34
46379;BME280;32084;42.254;22.744;2024-02-04T01:38:48;95701.41;;;0.11;88.71
46379;BME280;32084;42.254;22.744;2024-02-04T01:41:14;95710.50;;;0.21;88.01
46379;BME280;32084;42.254;22.744;2024-02-04T01:43:40;95710.66;;;0.34;87.49
46379;BME280;32084;42.254;22.744;2024-02-04T01:46:07;95711.66;;;0.31;87.73
46379;BME280;32084;42.254;22.744;2024-02-04T01:48:34;95712.28;;;0.36;87.41
46379;BME280;32084;42.254;22.744;2024-02-04T01:51:00;95716.00;;;0.48;86.87
46379;BME280;32084;42.254;22.744;2024-02-04T01:53:28;95704.28;;;0.54;86.50
46379;BME280;32084;42.254;22.744;2024-02-04T01:55:54;95709.09;;;0.62;85.76
46379;BME280;32084;42.254;22.744;2024-02-04T01:58:20;95694.66;;;0.69;85.53
46379;BME280;32084;42.254;22.744;2024-02-04T02:00:47;95693.38;;;0.76;85.23
46379;BME280;32084;42.254;22.744;2024-02-04T02:03:13;95687.00;;;0.80;85.51
46379;BME280;32084;42.254;22.744;2024-02-04T02:05:40;95693.63;;;0.71;85.77
46379;BME280;32084;42.254;22.744;2024-02-04T02:08:06;95688.44;;;0.70;86.21
46379;BME280;32084;42.254;22.744;2024-02-04T02:10:32;95679.31;;;0.61;87.88
46379;BME280;32084;42.254;22.744;2024-02-04T02:12:59;95676.72;;;0.75;87.02
46379;BME280;32084;42.254;22.744;2024-02-04T02:15:28;95684.09;;;0.85;86.75
46379;BME280;32084;42.254;22.744;2024-02-04T02:23:10;95683.41;;;0.81;87.92
46379;BME280;32084;42.254;22.744;2024-02-04T02:25:38;95693.16;;;0.65;87.81
46379;BME280;32084;42.254;22.744;2024-02-04T02:28:05;95705.19;;;0.69;87.77
46379;BME280;32084;42.254;22.744;2024-02-04T02:30:31;95708.59;;;0.71;87.84
46379;BME280;32084;42.254;22.744;2024-02-04T02:32:57;95707.31;;;0.78;87.44
46379;BME280;32084;42.254;22.744;2024-02-04T02:35:23;95705.31;;;0.51;88.84
46379;BME280;32084;42.254;22.744;2024-02-04T02:37:55;95697.16;;;0.40;89.33
46379;BME280;32084;42.254;22.744;2024-02-04T02:40:23;95698.25;;;0.36;89.94
46379;BME280;32084;42.254;22.744;2024-02-04T02:42:52;95695.28;;;0.58;88.74
46379;BME280;32084;42.254;22.744;2024-02-04T02:45:20;95688.53;;;0.68;88.55
46379;BME280;32084;42.254;22.744;2024-02-04T02:47:49;95683.69;;;0.76;88.30
46379;BME280;32084;42.254;22.744;2024-02-04T02:50:16;95678.81;;;0.85;88.64
46379;BME280;32084;42.254;22.744;2024-02-04T02:52:42;95681.69;;;0.96;88.64
46379;BME280;32084;42.254;22.744;2024-02-04T02:55:08;95679.59;;;0.87;89.07
46379;BME280;32084;42.254;22.744;2024-02-04T02:57:34;95676.88;;;0.88;89.09
46379;BME280;32084;42.254;22.744;2024-02-04T02:59:59;95676.69;;;0.91;88.62
46379;BME280;32084;42.254;22.744;2024-02-04T03:02:25;95679.88;;;0.96;88.68
46379;BME280;32084;42.254;22.744;2024-02-04T03:04:51;95676.81;;;1.04;88.18
46379;BME280;32084;42.254;22.744;2024-02-04T03:07:17;95683.13;;;1.02;88.12
46379;BME280;32084;42.254;22.744;2024-02-04T03:09:43;95678.50;;;1.05;87.95
46379;BME280;32084;42.254;22.744;2024-02-04T03:12:09;95684.06;;;1.01;88.30
46379;BME280;32084;42.254;22.744;2024-02-04T03:14:35;95686.88;;;0.97;88.15
46379;BME280;32084;42.254;22.744;2024-02-04T03:17:01;95672.72;;;0.84;89.29
46379;BME280;32084;42.254;22.744;2024-02-04T03:19:27;95675.50;;;0.97;88.30
46379;BME280;32084;42.254;22.744;2024-02-04T03:21:53;95673.91;;;1.09;88.56
46379;BME280;32084;42.254;22.744;2024-02-04T03:24:19;95671.66;;;1.17;87.89
46379;BME280;32084;42.254;22.744;2024-02-04T03:26:45;95672.03;;;1.11;88.61
46379;BME280;32084;42.254;22.744;2024-02-04T03:29:11;95666.78;;;1.11;89.13
46379;BME280;32084;42.254;22.744;2024-02-04T03:31:37;95660.38;;;1.01;89.64
46379;BME280;32084;42.254;22.744;2024-02-04T03:34:03;95654.06;;;1.03;89.66
46379;BME280;32084;42.254;22.744;2024-02-04T03:36:30;95653.53;;;1.12;89.66
46379;BME280;32084;42.254;22.744;2024-02-04T03:38:56;95651.69;;;0.98;89.49
46379;BME280;32084;42.254;22.744;2024-02-04T03:41:22;95659.25;;;1.05;89.06
46379;BME280;32084;42.254;22.744;2024-02-04T03:43:48;95656.06;;;1.14;88.45
46379;BME280;32084;42.254;22.744;2024-02-04T03:46:14;95662.63;;;1.21;88.14
46379;BME280;32084;42.254;22.744;2024-02-04T03:48:40;95666.53;;;1.30;87.70
46379;BME280;32084;42.254;22.744;2024-02-04T03:51:06;95662.09;;;1.16;88.08
46379;BME280;32084;42.254;22.744;2024-02-04T03:53:33;95664.75;;;1.00;88.93
46379;BME280;32084;42.254;22.744;2024-02-04T03:55:59;95650.69;;;1.01;88.21
46379;BME280;32084;42.254;22.744;2024-02-04T03:58:25;95643.84;;;0.83;89.46
46379;BME280;32084;42.254;22.744;2024-02-04T04:00:55;95639.78;;;0.77;89.19
46379;BME280;32084;42.254;22.744;2024-02-04T04:03:22;95625.81;;;0.91;88.47
46379;BME280;32084;42.254;22.744;2024-02-04T04:05:48;95624.03;;;0.91;88.19
46379;BME280;32084;42.254;22.744;2024-02-04T04:08:14;95618.94;;;0.88;88.28
46379;BME280;32084;42.254;22.744;2024-02-04T04:10:40;95622.63;;;0.86;88.13
46379;BME280;32084;42.254;22.744;2024-02-04T04:13:06;95633.63;;;0.62;89.36
46379;BME280;32084;42.254;22.744;2024-02-04T04:15:33;95632.84;;;0.30;91.01
46379;BME280;32084;42.254;22.744;2024-02-04T04:17:59;95641.00;;;0.25;92.25
46379;BME280;32084;42.254;22.744;2024-02-04T04:20:24;95639.94;;;0.44;91.19
46379;BME280;32084;42.254;22.744;2024-02-04T04:22:50;95639.41;;;0.53;90.00
46379;BME280;32084;42.254;22.744;2024-02-04T04:25:16;95638.25;;;0.43;89.94
46379;BME280;32084;42.254;22.744;2024-02-04T04:27:43;95643.72;;;0.24;91.17
46379;BME280;32084;42.254;22.744;2024-02-04T04:30:09;95643.13;;;0.18;91.26
46379;BME280;32084;42.254;22.744;2024-02-04T04:32:36;95642.00;;;0.23;91.12
46379;BME280;32084;42.254;22.744;2024-02-04T04:35:02;95640.81;;;0.28;90.42
46379;BME280;32084;42.254;22.744;2024-02-04T04:37:28;95649.56;;;0.29;90.34
46379;BME280;32084;42.254;22.744;2024-02-04T04:39:54;95644.88;;;0.34;90.37
46379;BME280;32084;42.254;22.744;2024-02-04T04:42:20;95644.56;;;0.40;89.82
46379;BME280;32084;42.254;22.744;2024-02-04T04:44:46;95640.88;;;0.43;89.64
46379;BME280;32084;42.254;22.744;2024-02-04T04:47:12;95656.78;;;0.25;90.06
46379;BME280;32084;42.254;22.744;2024-02-04T04:49:40;95663.50;;;-0.01;89.70
46379;BME280;32084;42.254;22.744;2024-02-04T04:52:06;95664.00;;;-0.10;90.34
46379;BME280;32084;42.254;22.744;2024-02-04T04:54:32;95663.06;;;0.07;90.58
46379;BME280;32084;42.254;22.744;2024-02-04T04:56:58;95672.22;;;0.15;89.92
46379;BME280;32084;42.254;22.744;2024-02-04T04:59:24;95679.44;;;0.28;89.14
46379;BME280;32084;42.254;22.744;2024-02-04T05:01:50;95674.78;;;0.33;89.20
46379;BME280;32084;42.254;22.744;2024-02-04T05:04:16;95676.88;;;0.42;88.89
46379;BME280;32084;42.254;22.744;2024-02-04T05:06:42;95667.78;;;0.48;88.12
46379;BME280;32084;42.254;22.744;2024-02-04T05:09:08;95655.91;;;0.25;88.32
46379;BME280;32084;42.254;22.744;2024-02-04T05:11:34;95647.81;;;0.13;89.07
46379;BME280;32084;42.254;22.744;2024-02-04T05:14:00;95641.78;;;-0.05;90.06
46379;BME280;32084;42.254;22.744;2024-02-04T05:16:26;95649.31;;;-0.14;90.71
46379;BME280;32084;42.254;22.744;2024-02-04T05:18:52;95651.94;;;-0.14;92.19
46379;BME280;32084;42.254;22.744;2024-02-04T05:21:18;95648.31;;;0.04;91.50
46379;BME280;32084;42.254;22.744;2024-02-04T05:23:44;95644.75;;;0.21;90.48
46379;BME280;32084;42.254;22.744;2024-02-04T05:26:10;95658.72;;;0.37;89.69
46379;BME280;32084;42.254;22.744;2024-02-04T05:28:36;95656.09;;;0.37;89.95
46379;BME280;32084;42.254;22.744;2024-02-04T05:31:02;95655.41;;;0.50;89.44
46379;BME280;32084;42.254;22.744;2024-02-04T05:33:28;95670.44;;;0.48;88.97
46379;BME280;32084;42.254;22.744;2024-02-04T05:35:54;95662.78;;;0.43;89.39
46379;BME280;32084;42.254;22.744;2024-02-04T05:38:23;95667.13;;;0.44;89.84
46379;BME280;32084;42.254;22.744;2024-02-04T05:40:49;95662.00;;;0.57;88.94
46379;BME280;32084;42.254;22.744;2024-02-04T05:43:15;95651.06;;;0.79;88.75
46379;BME280;32084;42.254;22.744;2024-02-04T05:45:41;95654.66;;;0.78;88.59
46379;BME280;32084;42.254;22.744;2024-02-04T05:48:08;95647.22;;;0.70;89.04
46379;BME280;32084;42.254;22.744;2024-02-04T05:50:34;95644.44;;;0.57;89.24
46379;BME280;32084;42.254;22.744;2024-02-04T05:53:00;95647.66;;;0.47;89.98
46379;BME280;32084;42.254;22.744;2024-02-04T05:55:26;95657.66;;;0.56;89.64
46379;BME280;32084;42.254;22.744;2024-02-04T05:57:52;95656.31;;;0.65;89.59
46379;BME280;32084;42.254;22.744;2024-02-04T06:00:18;95662.09;;;0.55;89.74
46379;BME280;32084;42.254;22.744;2024-02-04T06:02:44;95654.00;;;0.58;90.33
46379;BME280;32084;42.254;22.744;2024-02-04T06:05:13;95630.00;;;0.49;90.64
46379;BME280;32084;42.254;22.744;2024-02-04T06:07:39;95647.97;;;0.72;90.18
46379;BME280;32084;42.254;22.744;2024-02-04T06:10:11;95660.22;;;0.88;89.74
46379;BME280;32084;42.254;22.744;2024-02-04T06:12:37;95669.56;;;0.93;89.27
46379;BME280;32084;42.254;22.744;2024-02-04T06:15:11;95667.47;;;0.98;89.06
46379;BME280;32084;42.254;22.744;2024-02-04T06:17:38;95677.25;;;0.96;89.25
46379;BME280;32084;42.254;22.744;2024-02-04T06:20:04;95683.13;;;1.02;89.16
46379;BME280;32084;42.254;22.744;2024-02-04T06:22:30;95679.34;;;1.06;89.38
46379;BME280;32084;42.254;22.744;2024-02-04T06:24:56;95680.25;;;0.90;89.83
46379;BME280;32084;42.254;22.744;2024-02-04T06:27:22;95679.72;;;0.69;90.69
46379;BME280;32084;42.254;22.744;2024-02-04T06:29:48;95684.22;;;0.67;91.33
46379;BME280;32084;42.254;22.744;2024-02-04T06:32:14;95681.38;;;0.86;90.83
46379;BME280;32084;42.254;22.744;2024-02-04T06:34:40;95668.44;;;1.12;89.23
46379;BME280;32084;42.254;22.744;2024-02-04T06:37:06;95680.88;;;1.10;90.30
46379;BME280;32084;42.254;22.744;2024-02-04T06:42:53;95691.50;;;1.39;89.15
46379;BME280;32084;42.254;22.744;2024-02-04T06:45:19;95698.44;;;1.40;89.77
46379;BME280;32084;42.254;22.744;2024-02-04T06:47:45;95700.44;;;1.50;89.58
46379;BME280;32084;42.254;22.744;2024-02-04T06:50:11;95697.13;;;1.61;88.81
46379;BME280;32084;42.254;22.744;2024-02-04T06:52:41;95694.63;;;1.60;89.17
46379;BME280;32084;42.254;22.744;2024-02-04T06:55:08;95690.94;;;1.62;89.28
46379;BME280;32084;42.254;22.744;2024-02-04T06:57:34;95693.00;;;1.71;88.61
46379;BME280;32084;42.254;22.744;2024-02-04T07:00:00;95697.91;;;1.78;88.18
46379;BME280;32084;42.254;22.744;2024-02-04T07:02:27;95686.69;;;1.74;89.12
46379;BME280;32084;42.254;22.744;2024-02-04T07:04:53;95688.28;;;1.62;89.88
46379;BME280;32084;42.254;22.744;2024-02-04T07:07:19;95699.78;;;1.47;91.45
46379;BME280;32084;42.254;22.744;2024-02-04T07:09:45;95713.16;;;1.58;90.14
46379;BME280;32084;42.254;22.744;2024-02-04T07:12:11;95709.59;;;1.88;87.95
46379;BME280;32084;42.254;22.744;2024-02-04T07:14:37;95702.91;;;2.52;85.26
46379;BME280;32084;42.254;22.744;2024-02-04T07:17:03;95715.47;;;3.16;81.91
46379;BME280;32084;42.254;22.744;2024-02-04T07:19:29;95711.00;;;3.04;81.54
46379;BME280;32084;42.254;22.744;2024-02-04T07:21:55;95722.91;;;3.37;80.81
46379;BME280;32084;42.254;22.744;2024-02-04T07:24:21;95708.53;;;4.18;77.28
46379;BME280;32084;42.254;22.744;2024-02-04T07:26:47;95707.88;;;6.62;67.11
46379;BME280;32084;42.254;22.744;2024-02-04T07:29:13;95705.50;;;8.29;59.24
46379;BME280;32084;42.254;22.744;2024-02-04T07:31:39;95693.09;;;7.87;58.75
46379;BME280;32084;42.254;22.744;2024-02-04T07:34:05;95683.44;;;6.13;65.33
46379;BME280;32084;42.254;22.744;2024-02-04T07:36:31;95685.53;;;4.92;70.97
46379;BME280;32084;42.254;22.744;2024-02-04T07:38:57;95694.53;;;4.65;73.09
46379;BME280;32084;42.254;22.744;2024-02-04T07:41:23;95679.81;;;4.85;72.56
46379;BME280;32084;42.254;22.744;2024-02-04T07:43:49;95688.38;;;4.41;74.66
46379;BME280;32084;42.254;22.744;2024-02-04T07:46:15;95684.44;;;5.19;72.89
46379;BME280;32084;42.254;22.744;2024-02-04T07:48:41;95698.38;;;7.56;62.70
46379;BME280;32084;42.254;22.744;2024-02-04T07:51:07;95704.44;;;7.26;62.85
46379;BME280;32084;42.254;22.744;2024-02-04T07:53:33;95694.34;;;7.41;62.67
46379;BME280;32084;42.254;22.744;2024-02-04T07:56:02;95689.94;;;7.72;61.64
46379;BME280;32084;42.254;22.744;2024-02-04T07:58:29;95698.84;;;7.08;62.83
46379;BME280;32084;42.254;22.744;2024-02-04T08:00:55;95684.38;;;6.35;66.19
46379;BME280;32084;42.254;22.744;2024-02-04T08:03:21;95679.41;;;6.53;66.61
46379;BME280;32084;42.254;22.744;2024-02-04T08:05:47;95691.81;;;7.07;63.54
46379;BME280;32084;42.254;22.744;2024-02-04T08:08:13;95685.06;;;7.77;62.43
46379;BME280;32084;42.254;22.744;2024-02-04T08:10:39;95688.22;;;8.44;59.51
46379;BME280;32084;42.254;22.744;2024-02-04T08:13:05;95698.19;;;8.21;60.52
46379;BME280;32084;42.254;22.744;2024-02-04T08:15:32;95682.56;;;8.07;61.24
46379;BME280;32084;42.254;22.744;2024-02-04T08:17:58;95677.88;;;7.89;61.58
46379;BME280;32084;42.254;22.744;2024-02-04T08:20:24;95663.25;;;7.62;62.32
46379;BME280;32084;42.254;22.744;2024-02-04T08:22:51;95660.41;;;7.75;62.75
46379;BME280;32084;42.254;22.744;2024-02-04T08:25:17;95667.16;;;7.37;62.63
46379;BME280;32084;42.254;22.744;2024-02-04T08:27:43;95663.47;;;7.29;64.01
46379;BME280;32084;42.254;22.744;2024-02-04T08:30:09;95669.53;;;7.19;65.00
46379;BME280;32084;42.254;22.744;2024-02-04T08:32:37;95686.03;;;7.13;64.01
46379;BME280;32084;42.254;22.744;2024-02-04T08:35:04;95687.00;;;7.01;64.30
46379;BME280;32084;42.254;22.744;2024-02-04T08:37:30;95684.78;;;6.85;65.16
46379;BME280;32084;42.254;22.744;2024-02-04T08:39:56;95704.78;;;7.33;63.92
46379;BME280;32084;42.254;22.744;2024-02-04T08:42:22;95693.63;;;7.81;62.75
46379;BME280;32084;42.254;22.744;2024-02-04T08:44:48;95696.94;;;7.94;62.55
46379;BME280;32084;42.254;22.744;2024-02-04T08:47:14;95702.47;;;7.81;60.48
46379;BME280;32084;42.254;22.744;2024-02-04T08:49:41;95693.19;;;8.28;59.95
46379;BME280;32084;42.254;22.744;2024-02-04T08:52:07;95692.84;;;8.42;59.27
46379;BME280;32084;42.254;22.744;2024-02-04T08:54:33;95674.38;;;8.19;59.89
46379;BME280;32084;42.254;22.744;2024-02-04T08:56:59;95679.97;;;8.47;59.32
46379;BME280;32084;42.254;22.744;2024-02-04T08:59:25;95686.69;;;8.51;59.14
46379;BME280;32084;42.254;22.744;2024-02-04T09:01:51;95682.06;;;8.94;58.15
46379;BME280;32084;42.254;22.744;2024-02-04T09:04:17;95694.97;;;9.67;56.23
46379;BME280;32084;42.254;22.744;2024-02-04T09:06:43;95694.94;;;10.06;55.90
46379;BME280;32084;42.254;22.744;2024-02-04T09:09:10;95688.63;;;9.87;55.60
46379;BME280;32084;42.254;22.744;2024-02-04T09:11:36;95682.59;;;10.42;54.74
46379;BME280;32084;42.254;22.744;2024-02-04T09:14:02;95690.78;;;10.68;54.32
46379;BME280;32084;42.254;22.744;2024-02-04T09:16:29;95690.09;;;11.12;53.83
46379;BME280;32084;42.254;22.744;2024-02-04T09:18:56;95700.28;;;11.44;52.13
46379;BME280;32084;42.254;22.744;2024-02-04T09:21:21;95700.63;;;11.85;51.59
46379;BME280;32084;42.254;22.744;2024-02-04T09:23:48;95695.47;;;12.36;51.06
46379;BME280;32084;42.254;22.744;2024-02-04T09:26:14;95700.53;;;12.74;49.56
46379;BME280;32084;42.254;22.744;2024-02-04T09:28:40;95703.94;;;12.84;48.85
46379;BME280;32084;42.254;22.744;2024-02-04T09:31:08;95697.50;;;12.68;49.42
46379;BME280;32084;42.254;22.744;2024-02-04T09:33:35;95696.44;;;12.61;49.17
46379;BME280;32084;42.254;22.744;2024-02-04T09:36:03;95688.41;;;13.04;49.24
46379;BME280;32084;42.254;22.744;2024-02-04T09:38:29;95678.88;;;13.18;49.87
46379;BME280;32084;42.254;22.744;2024-02-04T09:40:55;95683.69;;;13.65;47.85
46379;BME280;32084;42.254;22.744;2024-02-04T09:43:21;95678.63;;;13.45;49.76
46379;BME280;32084;42.254;22.744;2024-02-04T09:45:48;95684.19;;;13.77;48.25
46379;BME280;32084;42.254;22.744;2024-02-04T09:48:16;95674.09;;;13.71;48.54
46379;BME280;32084;42.254;22.744;2024-02-04T09:50:44;95670.88;;;13.51;48.72
46379;BME280;32084;42.254;22.744;2024-02-04T09:53:11;95652.03;;;13.26;49.17
46379;BME280;32084;42.254;22.744;2024-02-04T09:55:40;95633.63;;;13.56;48.95
46379;BME280;32084;42.254;22.744;2024-02-04T09:58:06;95638.97;;;13.31;49.51
46379;BME280;32084;42.254;22.744;2024-02-04T10:00:33;95633.13;;;13.85;48.91
46379;BME280;32084;42.254;22.744;2024-02-04T10:02:59;95639.94;;;14.29;47.72
46379;BME280;32084;42.254;22.744;2024-02-04T10:05:26;95647.06;;;14.69;46.97
46379;BME280;32084;42.254;22.744;2024-02-04T10:07:52;95653.19;;;15.17;46.80
46379;BME280;32084;42.254;22.744;2024-02-04T10:10:18;95662.34;;;15.62;45.27
46379;BME280;32084;42.254;22.744;2024-02-04T10:12:44;95662.25;;;15.56;45.61
46379;BME280;32084;42.254;22.744;2024-02-04T10:15:10;95670.31;;;15.56;45.51
46379;BME280;32084;42.254;22.744;2024-02-04T10:17:41;95669.47;;;15.55;45.36
46379;BME280;32084;42.254;22.744;2024-02-04T10:20:09;95668.38;;;14.79;46.91
46379;BME280;32084;42.254;22.744;2024-02-04T10:22:35;95640.09;;;14.19;47.94
46379;BME280;32084;42.254;22.744;2024-02-04T10:25:05;95629.72;;;13.99;48.86
46379;BME280;32084;42.254;22.744;2024-02-04T10:27:31;95632.16;;;14.42;48.17
46379;BME280;32084;42.254;22.744;2024-02-04T10:29:57;95623.72;;;14.61;47.40
46379;BME280;32084;42.254;22.744;2024-02-04T10:32:23;95614.38;;;15.35;46.20
46379;BME280;32084;42.254;22.744;2024-02-04T10:34:49;95625.81;;;15.60;45.15
46379;BME280;32084;42.254;22.744;2024-02-04T10:37:15;95637.09;;;15.09;46.68
46379;BME280;32084;42.254;22.744;2024-02-04T10:39:41;95644.63;;;15.14;46.20
46379;BME280;32084;42.254;22.744;2024-02-04T10:42:07;95631.59;;;15.02;46.96
46379;BME280;32084;42.254;22.744;2024-02-04T10:44:35;95634.03;;;14.81;47.31
46379;BME280;32084;42.254;22.744;2024-02-04T10:47:03;95616.03;;;14.34;47.79
46379;BME280;32084;42.254;22.744;2024-02-04T10:49:31;95606.50;;;14.15;48.51
46379;BME280;32084;42.254;22.744;2024-02-04T10:52:00;95611.16;;;14.37;48.50
46379;BME280;32084;42.254;22.744;2024-02-04T10:54:29;95600.19;;;14.47;48.40
46379;BME280;32084;42.254;22.744;2024-02-04T10:56:56;95608.00;;;14.73;47.84
46379;BME280;32084;42.254;22.744;2024-02-04T10:59:25;95602.28;;;15.31;47.14
46379;BME280;32084;42.254;22.744;2024-02-04T11:01:55;95605.19;;;15.44;46.54
46379;BME280;32084;42.254;22.744;2024-02-04T11:04:22;95594.31;;;15.98;45.44
46379;BME280;32084;42.254;22.744;2024-02-04T11:06:49;95594.63;;;16.18;45.29
46379;BME280;32084;42.254;22.744;2024-02-04T11:09:15;95593.59;;;16.34;44.78
46379;BME280;32084;42.254;22.744;2024-02-04T11:11:42;95601.88;;;16.48;44.15
46379;BME280;32084;42.254;22.744;2024-02-04T11:14:10;95612.31;;;16.66;43.89
46379;BME280;32084;42.254;22.744;2024-02-04T11:26:54;95592.50;;;16.44;43.96
46379;BME280;32084;42.254;22.744;2024-02-04T11:29:21;95597.06;;;16.58;43.86
46379;BME280;32084;42.254;22.744;2024-02-04T11:31:47;95607.09;;;16.64;43.49
46379;BME280;32084;42.254;22.744;2024-02-04T11:34:14;95608.09;;;16.63;43.48
46379;BME280;32084;42.254;22.744;2024-02-04T11:36:40;95620.31;;;16.74;43.25
46379;BME280;32084;42.254;22.744;2024-02-04T11:39:12;95620.03;;;16.69;43.36
46379;BME280;32084;42.254;22.744;2024-02-04T11:41:45;95612.88;;;16.46;43.49
46379;BME280;32084;42.254;22.744;2024-02-04T11:44:12;95603.34;;;15.91;43.87
46379;BME280;32084;42.254;22.744;2024-02-04T11:46:45;95596.50;;;15.80;44.56
46379;BME280;32084;42.254;22.744;2024-02-04T11:49:14;95596.06;;;15.76;45.09
46379;BME280;32084;42.254;22.744;2024-02-04T11:51:44;95588.09;;;15.98;44.83
46379;BME280;32084;42.254;22.744;2024-02-04T11:54:10;95590.06;;;16.19;44.48
46379;BME280;32084;42.254;22.744;2024-02-04T11:56:37;95577.88;;;16.08;44.95
46379;BME280;32084;42.254;22.744;2024-02-04T11:59:03;95572.75;;;15.98;44.88
46379;BME280;32084;42.254;22.744;2024-02-04T12:01:31;95565.41;;;16.07;45.17
46379;BME280;32084;42.254;22.744;2024-02-04T12:03:57;95570.44;;;16.10;44.69
46379;BME280;32084;42.254;22.744;2024-02-04T12:06:23;95563.66;;;15.99;44.73
46379;BME280;32084;42.254;22.744;2024-02-04T12:08:49;95582.97;;;15.88;44.55
46379;BME280;32084;42.254;22.744;2024-02-04T12:11:15;95577.94;;;15.85;45.14
46379;BME280;32084;42.254;22.744;2024-02-04T12:13:42;95579.25;;;15.89;44.77
46379;BME280;32084;42.254;22.744;2024-02-04T12:16:09;95567.16;;;15.85;45.27
46379;BME280;32084;42.254;22.744;2024-02-04T12:18:35;95569.75;;;15.78;44.93
46379;BME280;32084;42.254;22.744;2024-02-04T12:21:01;95553.78;;;15.54;45.47
46379;BME280;32084;42.254;22.744;2024-02-04T12:23:27;95554.53;;;15.62;45.69
46379;BME280;32084;42.254;22.744;2024-02-04T12:25:54;95540.88;;;15.64;45.32
46379;BME280;32084;42.254;22.744;2024-02-04T12:28:20;95544.25;;;15.43;45.59
46379;BME280;32084;42.254;22.744;2024-02-04T12:30:53;95545.75;;;15.46;45.49
46379;BME280;32084;42.254;22.744;2024-02-04T12:33:24;95564.56;;;15.54;45.20
46379;BME280;32084;42.254;22.744;2024-02-04T12:35:50;95550.66;;;15.42;45.41
46379;BME280;32084;42.254;22.744;2024-02-04T12:38:17;95548.25;;;15.47;45.24
46379;BME280;32084;42.254;22.744;2024-02-04T12:40:45;95532.56;;;15.51;44.99
46379;BME280;32084;42.254;22.744;2024-02-04T12:43:11;95541.97;;;15.55;44.87
46379;BME280;32084;42.254;22.744;2024-02-04T12:45:37;95530.19;;;15.56;44.85
46379;BME280;32084;42.254;22.744;2024-02-04T12:48:03;95525.50;;;15.50;45.34
46379;BME280;32084;42.254;22.744;2024-02-04T12:50:31;95520.09;;;15.35;45.41
46379;BME280;32084;42.254;22.744;2024-02-04T12:53:10;95512.63;;;15.22;45.48
46379;BME280;32084;42.254;22.744;2024-02-04T12:55:39;95518.59;;;15.32;46.01
46379;BME280;32084;42.254;22.744;2024-02-04T12:58:05;95517.75;;;15.32;45.30
46379;BME280;32084;42.254;22.744;2024-02-04T13:00:32;95523.56;;;15.20;45.49
46379;BME280;32084;42.254;22.744;2024-02-04T13:02:58;95528.25;;;15.03;45.28
46379;BME280;32084;42.254;22.744;2024-02-04T13:05:25;95534.66;;;15.02;45.69
46379;BME280;32084;42.254;22.744;2024-02-04T13:07:55;95535.97;;;15.07;45.77
46379;BME280;32084;42.254;22.744;2024-02-04T13:10:22;95534.94;;;15.08;45.70